KHST/HST METAR and TAF weather

Enter ICAO airport designator
Station Type Date Time Source
KHST METAR 2018/12/10 01:56 UTC NOAA

KHST 100156Z AUTO 24008KT 10SM OVC150 23/20 A2998 RMK AO2 SLP155 T02280199 FZRANO VISNO RWY24 $


Station Type Date Time Source
KHST Decoded METAR 2018/12/10 01:56 UTC NOAA

Homestead Air Force Base, FL, United States (KHST) 25-29N 080-23W
Dec 09, 2018 - 08:56 PM EST / 2018.12.10 0156 UTC
Wind: from the WSW (240 degrees) at 9 MPH (8 KT):0
Visibility: 10 mile(s):0
Sky conditions: overcast
Temperature: 73.0 F (22.8 C)
Dew Point: 67.8 F (19.9 C)
Relative Humidity: 83%
Pressure (altimeter): 29.98 in. Hg (1015 hPa)
ob: KHST 100156Z AUTO 24008KT 10SM OVC150 23/20 A2998 RMK AO2 SLP155 T02280199 FZRANO VISNO RWY24
cycle: 2

Station Type Date Time Source
KHST TAF 2018/12/10 00:29 UTC NOAA

TAF KHST 100000Z 1000/1106 21012KT 9999 BKN030 QNH2994INS
BECMG 1003/1004 23009KT 9999 SCT007 BKN010 OVC020 QNH2993INS
BECMG 1008/1009 30009KT 9999 SCT010 BKN015 QNH2997INS
BECMG 1013/1014 32010G15KT 9999 SCT030 SCT080 QNH3004INS TX28/1000Z TN18/1011Z


Example: see airport list